Aérodrome :
LOGIN :

S'inscrire | Disclaimer

   EN    FR    IT 

 










Légende :    VFR   VFR Marginal   IFR   IFR Intensif   IFR Très Intensif
Visi : 
Plafond : 
>= 8 km
>= 3000ft
5 à 8 km
1000 à 3000 ft
1500m à 5 km
500 à 1000 ft
800 à 1500m
200 à 500 ft
< 800m
< 200 ft
Symboles :   Orages  Brouillard  Fortes neiges  Fortes précipitations  Vent > 20 kt
SIGMETs :   Divers  Orages  Givrage  Turbulence  Onde Orograph.  Cendres Volcan.







- Altitude de l'aérodrome : 162 ft
- Code IATA : BOD
- Voir les cartes d'approche


LFBD - Bordeaux / Merignac

DERNIER METAR :
  • 200900Z AUTO 26021KT 3600 RA BR OVC008 11/10 Q1016 TEMPO 27020G40KT 2000 RA OVC004

METARs EXPIRÉS :
  • 200830Z AUTO 26019KT 4000 RA BR OVC009/// ///TCU 11/10 Q1016 TEMPO 27020G40KT 2000 RA OVC004
  • 200800Z AUTO 25022KT 5000 -RA BR BKN009/// OVC013/// ///TCU 11/10 Q1016 TEMPO 27020G40KT 2000 RA OVC004
  • 200730Z AUTO 25020KT 6000 RA BKN012/// OVC020/// ///TCU 11/10 Q1016 TEMPO 27020G40KT 2000 RA OVC004
  • 200700Z AUTO 24016KT 7000 RA BKN009 BKN015 OVC021 10/10 Q1016 TEMPO 27020G40KT 2000 RA OVC004
  • 200630Z AUTO 23014KT 9000 -RA SCT012/// BKN018/// BKN025/// ///TCU 10/09 Q1017 TEMPO 27020G40KT 2000 RA OVC004

TAF TAF LFBD
Valide du 20 à 06h jusqu'au 21 à 12h UTC


200500Z 2006/2112 24015KT 7000 -RA OVC015
PROB40
TEMPO 2006/2108 28015G25KT 4000 RA BKN008
PROB40
TEMPO 2008/2018 27020G40KT 2000 RA OVC004 TX12/2012Z TN06/2006Z
ATIS : +33 5 57 92 81 04
Pas de NOTAMs connus pour ce terrain.
1 SIGMET publié pour la FIR Bordeaux (LFBB) :
 
Turbulence forte
LFBB SIGMET 1 VALID 200800/201200 LFPW
LFBB BORDEAUX FIR/UIR SEV TURB FCST WI N4345 W00145 - N4630 W00130 - N4630 W00015 - N4715 W00015 - N4715 E00100 - N4600 E00045 - N4600 W00015 - N4345 W00145 SFC/FL060 MOV E 30KT INTSF=



MET'MAP, la Météo Aéronautique d'un coup d'oeil ! - Copyright ORBIFLY Décembre 2007 - Disclaimer

ORBIFLY MET'MAP TEAM :

Programmation & Développement : Alexandra Zaïnal
Conception & Développement : Baudouin d'Aumeries
Co-Programmation & Développement : Marc-Olivier Méhu
Soutien technique & logistique : Manuel Goepfert

Contact : metmap@orbifly.com




SOURCES & CREDITS :

   NOAA